Time;durP1;ratioP1;P1;durP2;ratioP2;P2;SDS_P1;SDS_P2;PMS_P1;PMS_P2;Temp;Humidity;BMP_temperature;BMP_pressure;BME280_temperature;BME280_humidity;BME280_pressure;Samples;Min_cycle;Max_cycle;Signal;HPM_P1;HPM_P2
2022/02/21 00:01:17;;;;;;;2.72;1.60;;;;;;;11.57;58.54;99064.53;5098387;28;20023;-48
2022/02/21 00:03:42;;;;;;;3.22;1.60;;;;;;;11.56;58.21;99055.00;5098414;28;20523;-49
2022/02/21 00:06:08;;;;;;;4.97;1.55;;;;;;;11.61;58.01;99049.19;5097263;28;20020;-48
2022/02/21 00:08:34;;;;;;;4.10;1.70;;;;;;;11.56;57.56;99056.84;5097101;28;20026;-47
2022/02/21 00:11:02;;;;;;;5.85;1.95;;;;;;;11.52;57.90;99061.66;5097076;28;20020;-49
2022/02/21 00:13:29;;;;;;;8.35;2.03;;;;;;;11.44;58.10;99058.41;5097172;28;20024;-46
2022/02/21 00:15:54;;;;;;;7.28;1.83;;;;;;;11.46;57.51;99041.44;5098316;28;20031;-48
2022/02/21 00:18:20;;;;;;;3.00;1.48;;;;;;;11.39;58.28;99054.56;5098397;28;20024;-49
2022/02/21 00:20:46;;;;;;;3.03;1.40;;;;;;;11.42;57.91;99053.34;5097033;28;20375;-47
2022/02/21 00:23:13;;;;;;;3.13;1.60;;;;;;;11.43;57.85;99057.59;5098187;28;20031;-48
2022/02/21 00:25:39;;;;;;;3.47;1.40;;;;;;;11.52;58.48;99051.16;5098206;28;20024;-48
2022/02/21 00:28:05;;;;;;;4.28;2.10;;;;;;;11.63;58.45;99049.78;5098290;28;20024;-49
2022/02/21 00:30:30;;;;;;;6.05;3.10;;;;;;;11.53;58.39;99044.06;5098508;28;20024;-48
2022/02/21 00:32:56;;;;;;;4.68;2.13;;;;;;;11.46;58.85;99030.13;5096889;28;20024;-48
2022/02/21 00:35:23;;;;;;;3.08;1.58;;;;;;;11.37;58.47;99032.91;5098226;28;20020;-47
2022/02/21 00:37:49;;;;;;;3.55;1.90;;;;;;;11.30;58.83;99031.25;5098206;28;20016;-48
2022/02/21 00:40:15;;;;;;;4.47;1.70;;;;;;;11.29;59.15;99040.13;5097872;28;20066;-48
2022/02/21 00:42:41;;;;;;;7.88;3.42;;;;;;;11.29;59.36;99024.38;5098092;28;20276;-49
2022/02/21 00:45:09;;;;;;;10.30;1.70;;;;;;;11.22;58.45;99020.94;5098119;28;20027;-48
2022/02/21 00:47:35;;;;;;;1.85;1.20;;;;;;;11.25;58.24;99023.97;5098063;28;20048;-49
2022/02/21 00:50:02;;;;;;;2.50;1.05;;;;;;;11.39;57.69;99015.13;5096716;28;20063;-47
2022/02/21 00:52:28;;;;;;;4.07;1.40;;;;;;;11.45;58.28;99010.91;5098068;28;20043;-48
2022/02/21 00:54:53;;;;;;;1.92;0.90;;;;;;;11.54;57.42;99001.03;5096684;28;20482;-48
2022/02/21 00:57:19;;;;;;;4.30;1.40;;;;;;;11.59;57.46;98993.34;5097989;28;20103;-49
2022/02/21 00:59:46;;;;;;;5.53;1.60;;;;;;;11.59;57.64;98980.22;5094661;28;20027;-47
2022/02/21 01:02:12;;;;;;;3.20;1.70;;;;;;;11.66;57.91;98972.34;5094759;28;20028;-48
2022/02/21 01:04:38;;;;;;;2.72;1.67;;;;;;;11.65;57.10;98953.13;5093587;28;20031;-47
2022/02/21 01:07:04;;;;;;;4.57;1.73;;;;;;;11.67;56.82;98948.47;5094740;28;20020;-48
2022/02/21 01:09:29;;;;;;;4.72;1.95;;;;;;;11.73;56.61;98954.72;5093404;28;20031;-47
2022/02/21 01:11:56;;;;;;;4.53;1.27;;;;;;;11.75;56.46;98964.06;5093262;28;20031;-47
2022/02/21 01:14:22;;;;;;;9.60;2.00;;;;;;;11.73;56.32;98955.56;5094565;28;20028;-47
2022/02/21 01:16:47;;;;;;;2.05;1.45;;;;;;;11.71;55.90;98947.06;5094538;28;20016;-48
2022/02/21 01:19:13;;;;;;;4.65;1.50;;;;;;;11.72;56.76;98950.50;5093113;28;20036;-47
2022/02/21 01:21:39;;;;;;;2.80;1.60;;;;;;;11.72;56.44;98950.50;5094311;28;20085;-47
2022/02/21 01:24:05;;;;;;;2.72;1.55;;;;;;;11.72;56.07;98953.13;5094612;28;20032;-48
2022/02/21 01:26:31;;;;;;;1.52;1.20;;;;;;;11.73;56.18;98952.09;5094303;28;20363;-47
2022/02/21 01:28:56;;;;;;;4.47;1.40;;;;;;;11.64;56.12;98946.22;5094253;28;20490;-47
2022/02/21 01:31:22;;;;;;;4.60;1.40;;;;;;;11.58;56.65;98942.59;5094198;28;20493;-47
2022/02/21 01:33:48;;;;;;;2.55;1.40;;;;;;;11.67;56.59;98930.06;5094187;28;20035;-47
2022/02/21 01:36:13;;;;;;;4.22;1.30;;;;;;;11.82;55.37;98924.59;5094110;28;20489;-48
2022/02/21 01:38:39;;;;;;;2.28;1.20;;;;;;;11.97;55.00;98911.28;5094085;28;20040;-49
2022/02/21 01:41:05;;;;;;;2.47;0.63;;;;;;;12.12;52.81;98909.25;5093738;28;20112;-48
2022/02/21 01:43:31;;;;;;;2.03;0.90;;;;;;;12.16;52.55;98902.56;5092587;28;20093;-49
2022/02/21 01:45:57;;;;;;;1.88;1.20;;;;;;;12.10;51.88;98898.13;5093889;28;20017;-48
2022/02/21 01:48:23;;;;;;;4.22;1.33;;;;;;;12.02;51.33;98895.69;5093909;28;20030;-48
2022/02/21 01:50:49;;;;;;;4.07;1.00;;;;;;;11.97;52.27;98898.94;5092509;28;20032;-49
2022/02/21 01:53:15;;;;;;;1.42;0.98;;;;;;;11.96;51.85;98892.06;5093704;28;20089;-47
2022/02/21 01:55:43;;;;;;;2.78;1.27;;;;;;;11.94;51.60;98894.09;5092341;28;20039;-47
2022/02/21 01:58:10;;;;;;;2.67;1.10;;;;;;;11.96;51.69;98881.53;5092453;28;20508;-48
2022/02/21 02:00:36;;;;;;;2.40;1.10;;;;;;;11.97;52.25;98884.97;5092320;28;20063;-49
2022/02/21 02:03:03;;;;;;;2.58;1.20;;;;;;;11.97;53.34;98880.53;5093515;28;20020;-48
2022/02/21 02:05:29;;;;;;;4.28;1.10;;;;;;;11.94;54.43;98872.25;5093499;28;20531;-48
2022/02/21 02:07:55;;;;;;;2.63;1.08;;;;;;;11.81;55.25;98870.38;5092190;28;20111;-48
2022/02/21 02:10:21;;;;;;;3.00;1.08;;;;;;;11.54;55.65;98864.34;5092079;28;20028;-49
2022/02/21 02:12:47;;;;;;;5.90;1.73;;;;;;;11.29;57.02;98885.13;5092080;28;20060;-49
2022/02/21 02:15:19;;;;;;;6.35;1.70;;;;;;;11.08;56.86;98880.84;5093383;28;20024;-47
2022/02/21 02:17:44;;;;;;;9.32;2.88;;;;;;;10.97;57.54;98869.91;5093261;28;20028;-49
2022/02/21 02:20:11;;;;;;;6.45;1.65;;;;;;;11.00;58.56;98880.00;5093279;28;20023;-49
2022/02/21 02:22:37;;;;;;;3.08;1.40;;;;;;;10.95;57.08;98871.94;5091820;28;20517;-48
2022/02/21 02:25:04;;;;;;;3.40;1.35;;;;;;;10.92;57.69;98867.06;5091849;28;20024;-48
2022/02/21 02:27:30;;;;;;;9.73;2.50;;;;;;;11.02;57.42;98858.00;5091847;28;20082;-49
2022/02/21 02:30:02;;;;;;;5.55;1.60;;;;;;;11.10;57.40;98857.81;5091762;28;20114;-47
2022/02/21 02:32:28;;;;;;;5.65;2.03;;;;;;;11.12;57.28;98845.31;5093137;28;20106;-49
2022/02/21 02:34:54;;;;;;;5.90;1.80;;;;;;;11.09;58.53;98845.72;5091657;28;20028;-49
2022/02/21 02:37:23;;;;;;;5.30;1.27;;;;;;;11.11;57.33;98841.06;5092936;28;20047;-47
2022/02/21 02:39:50;;;;;;;3.45;1.42;;;;;;;11.03;58.24;98842.06;5092524;28;20101;-48
2022/02/21 02:42:16;;;;;;;2.85;1.00;;;;;;;11.00;57.91;98830.13;5092739;28;20035;-48
2022/02/21 02:44:42;;;;;;;4.22;1.35;;;;;;;10.97;57.37;98837.59;5091437;28;20582;-48
2022/02/21 02:47:09;;;;;;;2.25;0.90;;;;;;;11.05;56.95;98844.50;5092706;28;20070;-48
2022/02/21 02:49:37;;;;;;;4.45;1.23;;;;;;;11.11;56.24;98841.06;5092658;28;20039;-49
2022/02/21 02:52:04;;;;;;;4.72;1.10;;;;;;;11.17;55.66;98829.75;5091389;28;20024;-47
2022/02/21 02:54:30;;;;;;;4.00;1.27;;;;;;;11.29;55.18;98824.69;5092662;28;20494;-47
2022/02/21 02:56:56;;;;;;;7.15;2.00;;;;;;;11.32;55.81;98825.09;5092560;28;20021;-49
2022/02/21 02:59:25;;;;;;;6.57;1.75;;;;;;;11.43;55.44;98826.34;5092537;28;20383;-49
2022/02/21 03:01:54;;;;;;;6.85;1.88;;;;;;;11.55;55.74;98823.88;5090995;28;20020;-49
2022/02/21 03:04:20;;;;;;;3.53;1.17;;;;;;;11.63;55.11;98815.00;5092441;28;20509;-48
2022/02/21 03:06:46;;;;;;;4.00;1.42;;;;;;;11.67;55.28;98805.69;5091080;28;20076;-48
2022/02/21 03:09:12;;;;;;;5.47;1.40;;;;;;;11.68;54.88;98797.59;5092380;28;20024;-49
2022/02/21 03:11:38;;;;;;;2.97;1.20;;;;;;;11.72;54.80;98788.28;5092268;28;20016;-49
2022/02/21 03:14:04;;;;;;;5.40;1.38;;;;;;;11.83;54.90;98788.66;5090987;28;20028;-49
2022/02/21 03:16:30;;;;;;;3.90;1.10;;;;;;;12.01;54.06;98778.34;5090887;28;20099;-49
2022/02/21 03:18:56;;;;;;;6.50;1.48;;;;;;;12.17;53.81;98772.63;5092223;28;20110;-49
2022/02/21 03:21:22;;;;;;;5.70;2.22;;;;;;;12.29;53.16;98759.59;5092377;28;20446;-48
2022/02/21 03:23:48;;;;;;;6.03;1.40;;;;;;;12.44;53.17;98751.47;5091493;28;20020;-49
2022/02/21 03:26:14;;;;;;;3.63;1.48;;;;;;;12.51;52.39;98746.94;5092093;28;20017;-49
2022/02/21 03:28:40;;;;;;;3.90;1.38;;;;;;;12.54;52.05;98743.91;5090755;28;20031;-48
2022/02/21 03:31:08;;;;;;;5.10;1.88;;;;;;;12.54;51.73;98746.53;5092016;28;20020;-48
2022/02/21 03:33:34;;;;;;;3.20;1.17;;;;;;;12.54;52.01;98741.28;5090660;28;20085;-49
2022/02/21 03:36:00;;;;;;;3.38;1.45;;;;;;;12.49;53.78;98738.47;5091982;28;20467;-48
2022/02/21 03:38:25;;;;;;;5.15;1.17;;;;;;;12.37;53.00;98735.72;5090703;28;20048;-49
2022/02/21 03:40:52;;;;;;;3.95;1.42;;;;;;;12.29;53.20;98711.44;5091717;28;20056;-49
2022/02/21 03:43:18;;;;;;;4.18;1.20;;;;;;;12.25;53.13;98702.34;5091855;28;20017;-49
2022/02/21 03:45:46;;;;;;;8.05;1.50;;;;;;;12.17;53.24;98685.81;5090563;28;20514;-49
2022/02/21 03:48:11;;;;;;;3.85;1.33;;;;;;;12.19;52.69;98683.78;5091889;28;20025;-49
2022/02/21 03:50:37;;;;;;;2.55;1.27;;;;;;;12.29;52.45;98687.75;5091803;28;20420;-48
2022/02/21 03:53:03;;;;;;;3.13;1.25;;;;;;;12.34;52.02;98699.28;5091863;28;20551;-48
2022/02/21 03:55:29;;;;;;;6.97;1.63;;;;;;;12.29;54.55;98703.53;5090691;28;20119;-48
2022/02/21 03:57:55;;;;;;;5.70;1.90;;;;;;;12.02;56.05;98716.84;5091809;28;20024;-48
2022/02/21 04:00:21;;;;;;;1.90;1.10;;;;;;;11.70;56.54;98719.34;5090485;28;20028;-48
2022/02/21 04:02:47;;;;;;;5.28;1.40;;;;;;;11.42;58.04;98716.16;5091703;28;20048;-47
2022/02/21 04:05:14;;;;;;;5.80;1.48;;;;;;;11.18;58.82;98713.97;5090367;28;20122;-48
2022/02/21 04:07:42;;;;;;;3.67;0.80;;;;;;;11.05;58.36;98707.94;5090379;28;20024;-48
2022/02/21 04:10:12;;;;;;;3.17;1.23;;;;;;;10.96;58.91;98694.97;5091949;28;20073;-50
2022/02/21 04:12:38;;;;;;;3.60;1.30;;;;;;;10.96;59.01;98689.72;5091732;28;20028;-50
2022/02/21 04:15:05;;;;;;;2.95;1.20;;;;;;;11.03;58.57;98694.16;5091633;28;20106;-48
2022/02/21 04:17:46;;;;;;;4.05;1.40;;;;;;;11.13;58.09;98679.63;5090286;28;20028;-48
2022/02/21 04:20:14;;;;;;;4.20;1.73;;;;;;;11.24;57.05;98665.06;5091561;28;20093;-48
2022/02/21 04:22:41;;;;;;;3.08;1.02;;;;;;;11.33;56.90;98660.41;5091452;28;20016;-48
2022/02/21 04:25:08;;;;;;;4.07;1.10;;;;;;;11.42;57.08;98667.03;5091532;28;20058;-48
2022/02/21 04:27:44;;;;;;;3.17;1.05;;;;;;;11.38;58.22;98674.53;5090169;28;20053;-49
2022/02/21 04:30:11;;;;;;;4.13;1.23;;;;;;;11.17;58.83;98677.41;5091488;28;20020;-48
2022/02/21 04:32:39;;;;;;;5.85;1.27;;;;;;;10.94;60.05;98673.38;5091430;28;20020;-49
2022/02/21 04:35:07;;;;;;;4.47;1.10;;;;;;;10.81;60.04;98681.25;5093383;28;20402;-48
2022/02/21 04:37:33;;;;;;;5.50;1.83;;;;;;;10.75;60.65;98682.06;5093943;28;20020;-49
2022/02/21 04:39:59;;;;;;;6.78;1.48;;;;;;;10.81;60.62;98675.22;5093658;28;20524;-49
2022/02/21 04:42:25;;;;;;;3.13;1.08;;;;;;;10.87;59.74;98675.19;5095383;28;20032;-49
2022/02/21 04:44:51;;;;;;;4.35;1.00;;;;;;;10.99;59.56;98672.78;5095152;28;20031;-48
2022/02/21 04:47:16;;;;;;;3.05;1.00;;;;;;;11.10;58.61;98680.03;5095102;28;20024;-47
2022/02/21 04:49:42;;;;;;;4.07;1.55;;;;;;;11.11;58.98;98662.47;5095057;28;20039;-46
2022/02/21 04:52:08;;;;;;;6.93;1.42;;;;;;;11.21;58.71;98652.34;5094986;28;20059;-48
2022/02/21 04:54:33;;;;;;;5.10;1.20;;;;;;;11.37;57.34;98645.84;5094967;28;20478;-49
2022/02/21 04:56:59;;;;;;;5.70;1.60;;;;;;;11.50;57.24;98642.38;5095108;28;20475;-50
2022/02/21 04:59:25;;;;;;;2.45;0.98;;;;;;;11.62;56.81;98640.69;5094849;28;20016;-49
2022/02/21 05:01:50;;;;;;;5.95;1.55;;;;;;;11.75;56.30;98631.94;5093419;28;20566;-49
2022/02/21 05:04:16;;;;;;;4.05;1.20;;;;;;;11.84;55.73;98607.03;5094772;28;20021;-47
2022/02/21 05:06:42;;;;;;;6.88;1.52;;;;;;;11.92;55.98;98611.28;5094734;28;20027;-49
2022/02/21 05:09:07;;;;;;;4.00;0.98;;;;;;;11.93;54.87;98589.22;5093385;28;20028;-47
2022/02/21 05:11:33;;;;;;;3.05;0.90;;;;;;;11.86;55.24;98588.44;5094610;28;20069;-48
2022/02/21 05:13:59;;;;;;;3.95;1.10;;;;;;;11.84;55.03;98586.00;5094615;28;20020;-48
2022/02/21 05:16:24;;;;;;;3.58;1.30;;;;;;;11.85;54.79;98589.44;5093153;28;20046;-48
2022/02/21 05:18:50;;;;;;;6.43;2.03;;;;;;;11.85;55.65;98605.19;5093172;28;20486;-48
2022/02/21 05:21:15;;;;;;;6.22;1.00;;;;;;;11.87;58.59;98621.56;5093104;28;20542;-48
2022/02/21 05:23:41;;;;;;;4.78;1.02;;;;;;;11.75;58.68;98624.06;5094323;28;20034;-48
2022/02/21 05:26:08;;;;;;;4.43;1.20;;;;;;;11.53;59.28;98619.09;5094319;28;20497;-47
2022/02/21 05:28:34;;;;;;;4.35;1.10;;;;;;;11.29;60.17;98615.34;5094313;28;20389;-47
2022/02/21 05:30:59;;;;;;;4.38;1.25;;;;;;;11.00;60.58;98616.59;5094228;28;20107;-48
2022/02/21 05:33:25;;;;;;;4.43;1.50;;;;;;;10.81;61.30;98613.00;5092880;28;20030;-49
2022/02/21 05:35:51;;;;;;;3.70;1.15;;;;;;;10.69;60.83;98610.19;5092838;28;20055;-47
2022/02/21 05:38:16;;;;;;;6.22;1.08;;;;;;;10.67;61.25;98621.91;5094071;28;20016;-49
2022/02/21 05:40:42;;;;;;;4.07;0.80;;;;;;;10.64;61.58;98614.41;5093877;28;20544;-48
2022/02/21 05:43:08;;;;;;;6.88;1.23;;;;;;;10.63;61.72;98616.25;5092693;28;20509;-48
2022/02/21 05:45:33;;;;;;;2.88;1.05;;;;;;;10.68;62.57;98619.06;5093233;28;20095;-48
2022/02/21 05:47:59;;;;;;;3.40;0.95;;;;;;;10.70;62.90;98630.16;5093956;28;20020;-48
2022/02/21 05:50:25;;;;;;;5.82;1.08;;;;;;;10.67;64.35;98635.81;5093893;28;20023;-48
2022/02/21 05:52:50;;;;;;;5.60;1.50;;;;;;;10.71;64.83;98649.34;5093894;28;20523;-49
2022/02/21 05:55:16;;;;;;;25.33;3.40;;;;;;;10.62;65.83;98653.97;5092480;28;20027;-48
2022/02/21 05:57:42;;;;;;;8.68;1.88;;;;;;;10.52;67.80;98654.41;5093782;28;20032;-49
2022/02/21 06:00:08;;;;;;;8.35;2.20;;;;;;;10.41;69.15;98651.56;5092405;28;20397;-48
2022/02/21 06:02:34;;;;;;;10.85;1.90;;;;;;;10.22;70.20;98681.94;5092302;28;20405;-48
2022/02/21 06:05:00;;;;;;;13.07;3.33;;;;;;;10.08;70.99;98681.09;5092287;28;20057;-48
2022/02/21 06:07:25;;;;;;;4.75;1.85;;;;;;;9.95;71.16;98674.00;5093495;28;20024;-48
2022/02/21 06:09:51;;;;;;;11.82;2.65;;;;;;;9.89;72.21;98680.03;5092254;28;20024;-46
2022/02/21 06:12:17;;;;;;;18.52;2.63;;;;;;;9.87;72.85;98682.84;5093415;28;20482;-49
2022/02/21 06:14:42;;;;;;;10.70;2.42;;;;;;;9.85;74.14;98691.91;5093461;28;20020;-48
2022/02/21 06:17:08;;;;;;;14.88;2.42;;;;;;;9.91;74.19;98678.03;5093381;28;20020;-49
2022/02/21 06:19:34;;;;;;;9.13;1.88;;;;;;;9.90;75.10;98681.63;5093303;28;20017;-48
2022/02/21 06:22:02;;;;;;;10.82;2.25;;;;;;;9.75;74.74;98684.41;5093169;28;20028;-48
2022/02/21 06:24:28;;;;;;;5.75;1.55;;;;;;;9.44;75.24;98679.59;5093110;28;20024;-48
2022/02/21 06:26:53;;;;;;;9.52;2.53;;;;;;;9.16;75.43;98680.44;5093122;28;20052;-48
2022/02/21 06:29:20;;;;;;;8.05;2.10;;;;;;;8.99;75.97;98685.16;5091779;28;20055;-49
2022/02/21 06:31:46;;;;;;;9.27;2.10;;;;;;;8.91;75.92;98680.84;5093052;28;20032;-49
2022/02/21 06:34:12;;;;;;;8.27;1.60;;;;;;;8.86;76.13;98674.59;5091713;28;20032;-49
2022/02/21 06:36:38;;;;;;;10.45;2.10;;;;;;;8.77;76.22;98676.50;5092967;28;20393;-49
2022/02/21 06:39:04;;;;;;;9.65;2.20;;;;;;;8.88;77.05;98691.72;5092725;28;20026;-48
2022/02/21 06:41:30;;;;;;;9.40;1.20;;;;;;;9.06;77.77;98693.06;5091533;28;20123;-49
2022/02/21 06:43:56;;;;;;;8.02;2.03;;;;;;;9.05;77.27;98700.09;5092873;28;20389;-49
2022/02/21 06:46:21;;;;;;;10.52;1.52;;;;;;;9.10;78.47;98686.44;5092772;28;20024;-48
2022/02/21 06:48:47;;;;;;;7.70;1.50;;;;;;;9.18;79.01;98684.50;5092766;28;20158;-49
2022/02/21 06:51:13;;;;;;;7.80;1.38;;;;;;;9.25;79.22;98684.53;5091360;28;20027;-48
2022/02/21 06:53:39;;;;;;;7.25;1.40;;;;;;;9.31;79.37;98680.34;5091353;28;20028;-47
2022/02/21 06:56:05;;;;;;;4.90;1.02;;;;;;;9.33;79.96;98679.13;5092566;28;20055;-48
2022/02/21 06:58:31;;;;;;;6.88;1.98;;;;;;;9.40;80.02;98676.56;5091615;28;20048;-47
2022/02/21 07:00:56;;;;;;;5.43;1.13;;;;;;;9.44;80.04;98680.44;5091226;28;20058;-48
2022/02/21 07:03:22;;;;;;;11.50;1.70;;;;;;;9.55;80.38;98682.47;5091081;28;20472;-48
2022/02/21 07:05:48;;;;;;;4.90;1.00;;;;;;;9.69;80.55;98691.22;5091110;28;20543;-47
2022/02/21 07:08:14;;;;;;;5.85;1.52;;;;;;;9.71;80.26;98704.94;5091109;28;20024;-48
2022/02/21 07:10:39;;;;;;;7.68;1.75;;;;;;;9.68;80.35;98717.63;5092379;28;20100;-48
2022/02/21 07:13:05;;;;;;;4.18;1.30;;;;;;;9.72;80.55;98766.84;5092368;28;20550;-47
2022/02/21 07:15:32;;;;;;;12.07;2.38;;;;;;;9.35;75.05;98836.09;5092323;28;20439;-48
2022/02/21 07:17:58;;;;;;;21.10;3.40;;;;;;;8.82;76.70;98849.47;5090929;28;20071;-47
2022/02/21 07:20:25;;;;;;;28.00;4.15;;;;;;;8.76;79.30;98842.38;5090830;28;20028;-47
2022/02/21 07:22:51;;;;;;;26.92;4.55;;;;;;;8.88;79.63;98853.97;5092152;28;20394;-47
2022/02/21 07:25:17;;;;;;;31.45;4.72;;;;;;;8.85;80.08;98853.53;5090844;28;20039;-46
2022/02/21 07:27:47;;;;;;;28.90;5.15;;;;;;;8.89;80.93;98860.81;5090808;28;20073;-47
2022/02/21 07:30:14;;;;;;;33.47;5.75;;;;;;;8.93;80.42;98856.88;5092026;28;20036;-47
2022/02/21 07:32:39;;;;;;;36.13;4.88;;;;;;;8.99;81.13;98858.75;5092087;28;20028;-47
2022/02/21 07:35:07;;;;;;;26.10;4.43;;;;;;;8.97;80.66;98855.50;5092043;28;20406;-47
2022/02/21 07:37:32;;;;;;;31.55;6.15;;;;;;;8.85;80.56;98867.41;5091988;28;20420;-47
2022/02/21 07:39:58;;;;;;;39.03;5.50;;;;;;;8.70;80.42;98862.22;5090392;28;20574;-47
2022/02/21 07:42:24;;;;;;;37.67;5.63;;;;;;;8.70;81.20;98858.81;5090554;28;20020;-47
2022/02/21 07:44:51;;;;;;;34.35;5.97;;;;;;;8.81;81.14;98866.16;5090580;28;20106;-47
2022/02/21 07:47:20;;;;;;;32.53;6.55;;;;;;;8.77;80.43;98872.75;5091859;28;20081;-48
2022/02/21 07:49:46;;;;;;;26.92;5.45;;;;;;;8.87;81.26;98867.25;5090809;28;20071;-48
2022/02/21 07:52:12;;;;;;;35.30;4.82;;;;;;;8.99;81.26;98871.81;5091849;28;20064;-47
2022/02/21 07:54:37;;;;;;;27.52;4.78;;;;;;;9.17;81.34;98878.44;5091848;28;20055;-47
2022/02/21 07:57:06;;;;;;;29.42;5.20;;;;;;;9.22;80.64;98886.56;5091747;28;20016;-47
2022/02/21 07:59:32;;;;;;;27.15;4.18;;;;;;;9.25;80.54;98883.53;5091701;28;20115;-46
2022/02/21 08:01:58;;;;;;;31.83;6.05;;;;;;;9.26;80.09;98881.75;5091732;28;20056;-47
2022/02/21 08:04:25;;;;;;;28.85;5.03;;;;;;;9.28;79.78;98885.00;5091792;28;20024;-47
2022/02/21 08:06:51;;;;;;;30.02;6.22;;;;;;;9.59;79.22;98880.22;5091664;28;20020;-48
2022/02/21 08:09:18;;;;;;;29.27;4.95;;;;;;;10.13;77.81;98884.03;5093875;28;20107;-48
2022/02/21 08:11:44;;;;;;;25.33;6.05;;;;;;;10.67;76.68;98882.53;5095790;28;20024;-47
2022/02/21 08:14:10;;;;;;;24.52;4.72;;;;;;;11.18;74.96;98879.44;5095736;28;20107;-48
2022/02/21 08:16:36;;;;;;;29.98;4.80;;;;;;;11.62;73.98;98887.00;5095637;28;20016;-48
2022/02/21 08:19:02;;;;;;;22.95;4.90;;;;;;;12.13;72.63;98891.63;5095630;28;20031;-47
2022/02/21 08:21:27;;;;;;;24.08;4.90;;;;;;;12.33;71.66;98899.47;5095496;28;20034;-48
2022/02/21 08:23:53;;;;;;;30.75;5.22;;;;;;;11.98;70.90;98905.00;5095679;28;20039;-48
2022/02/21 08:26:19;;;;;;;47.88;6.47;;;;;;;11.73;71.35;98902.16;5095429;28;20465;-48
2022/02/21 08:28:45;;;;;;;28.55;6.47;;;;;;;11.86;71.77;98906.63;5094109;28;20114;-48
2022/02/21 08:31:10;;;;;;;68.78;22.75;;;;;;;12.42;70.07;98887.72;5094103;28;20016;-48
2022/02/21 08:33:36;;;;;;;23.90;6.55;;;;;;;12.78;69.25;98891.66;5095670;28;20042;-49
2022/02/21 08:36:02;;;;;;;45.42;21.55;;;;;;;13.48;67.93;98890.88;5095241;28;20024;-49
2022/02/21 08:38:28;;;;;;;24.25;5.88;;;;;;;13.58;66.88;98912.28;5095356;28;20031;-48
2022/02/21 08:40:53;;;;;;;28.10;6.47;;;;;;;13.90;65.36;98923.59;5095001;28;20048;-48
2022/02/21 08:43:19;;;;;;;25.85;4.68;;;;;;;14.13;63.43;98914.28;5093722;28;20490;-48
2022/02/21 08:45:45;;;;;;;29.88;5.75;;;;;;;15.05;60.27;98921.41;5093787;28;20081;-48
2022/02/21 08:48:10;;;;;;;14.15;3.40;;;;;;;15.70;54.85;98900.31;5093746;28;20048;-47
2022/02/21 08:50:36;;;;;;;16.83;3.85;;;;;;;16.02;50.77;98884.16;5095021;28;20457;-47
2022/02/21 08:53:02;;;;;;;19.73;3.90;;;;;;;15.87;49.90;98905.78;5076834;28;20027;-48
2022/02/21 08:55:28;;;;;;;28.13;5.18;;;;;;;16.14;48.33;98900.84;5094913;28;20035;-47
2022/02/21 08:57:53;;;;;;;27.88;5.82;;;;;;;16.30;46.83;98899.34;5094906;28;20027;-48
2022/02/21 09:00:19;;;;;;;12.30;3.00;;;;;;;16.44;44.26;98910.50;5094859;28;20070;-48
2022/02/21 09:02:46;;;;;;;14.70;3.95;;;;;;;16.72;44.17;98927.47;5094718;28;20025;-48
2022/02/21 09:05:13;;;;;;;15.80;4.05;;;;;;;17.27;45.73;98936.78;5094741;28;20089;-49
2022/02/21 09:07:38;;;;;;;14.52;3.13;;;;;;;17.76;43.03;98932.56;5093425;28;20461;-49
2022/02/21 09:10:05;;;;;;;17.52;4.55;;;;;;;18.07;41.30;98935.75;5094606;28;20073;-49
2022/02/21 09:12:31;;;;;;;18.65;3.80;;;;;;;18.43;39.92;98920.31;5094644;28;20044;-49
2022/02/21 09:15:01;;;;;;;19.70;4.07;;;;;;;19.06;39.51;98938.63;5094628;28;20032;-49
2022/02/21 09:17:29;;;;;;;12.65;3.55;;;;;;;19.45;36.61;98933.16;5093411;28;20020;-50
2022/02/21 09:19:55;;;;;;;22.98;3.83;;;;;;;20.00;34.62;98916.06;5093520;28;20069;-48
2022/02/21 09:22:21;;;;;;;20.17;5.28;;;;;;;20.32;33.17;98931.16;5094410;28;20012;-49
2022/02/21 09:24:48;;;;;;;18.77;3.97;;;;;;;19.67;31.62;98941.06;5093081;28;20031;-47
2022/02/21 09:27:15;;;;;;;21.98;4.13;;;;;;;18.20;32.52;98965.66;5094288;28;20505;-47
2022/02/21 09:29:43;;;;;;;20.63;3.88;;;;;;;17.07;34.76;98961.06;5094561;28;20032;-50
2022/02/21 09:32:09;;;;;;;20.23;4.85;;;;;;;16.08;37.20;98970.59;5094524;28;20070;-48
2022/02/21 09:34:35;;;;;;;15.48;3.53;;;;;;;15.46;37.88;98967.44;5092912;28;20426;-48
2022/02/21 09:37:01;;;;;;;17.35;4.00;;;;;;;15.33;37.13;98973.72;5094205;28;20113;-47
2022/02/21 09:39:27;;;;;;;15.25;3.67;;;;;;;14.81;38.17;98974.16;5093938;28;20032;-48
2022/02/21 09:41:54;;;;;;;15.57;3.70;;;;;;;14.56;39.05;98971.56;5094072;28;20039;-48
2022/02/21 09:44:20;;;;;;;19.48;4.05;;;;;;;14.55;39.21;98976.03;5092757;28;20020;-48
2022/02/21 09:46:49;;;;;;;21.08;4.25;;;;;;;14.53;38.88;98985.19;5093976;28;20030;-48
2022/02/21 09:49:19;;;;;;;15.93;4.90;;;;;;;14.61;40.01;98978.81;5092674;28;20054;-47
2022/02/21 09:51:45;;;;;;;23.30;5.00;;;;;;;15.02;40.35;98983.47;5092560;28;20115;-49
2022/02/21 09:54:15;;;;;;;21.05;3.97;;;;;;;15.28;39.77;98978.88;5092787;28;20028;-49
2022/02/21 09:56:42;;;;;;;20.60;4.43;;;;;;;15.63;39.97;98980.84;5093841;28;20077;-48
2022/02/21 09:59:09;;;;;;;20.60;3.72;;;;;;;17.08;37.61;98974.09;5093701;28;20012;-48
2022/02/21 10:01:38;;;;;;;22.52;3.95;;;;;;;18.35;35.58;98981.81;5093620;28;20103;-49
2022/02/21 10:04:05;;;;;;;17.23;4.07;;;;;;;18.54;32.89;98966.41;5093607;28;20020;-48
2022/02/21 10:06:32;;;;;;;21.48;4.22;;;;;;;18.32;32.67;98974.34;5092314;28;20115;-49
2022/02/21 10:09:03;;;;;;;21.83;4.82;;;;;;;18.86;32.58;98961.28;5092254;28;20111;-50
2022/02/21 10:11:40;;;;;;;21.15;4.28;;;;;;;19.12;31.70;98962.38;5093573;28;20024;-50
2022/02/21 10:14:18;;;;;;;19.75;4.00;;;;;;;18.55;31.85;98963.53;5093530;28;20016;-48
2022/02/21 10:16:50;;;;;;;21.02;4.13;;;;;;;18.09;32.47;98973.50;5093381;28;20032;-48
2022/02/21 10:19:22;;;;;;;24.65;5.93;;;;;;;17.63;32.33;98971.91;5093391;28;20042;-48
2022/02/21 10:21:50;;;;;;;19.63;4.10;;;;;;;17.11;32.05;98972.81;5091904;28;20035;-48
2022/02/21 10:24:17;;;;;;;25.40;4.45;;;;;;;16.49;34.22;98971.50;5093243;28;20027;-48
2022/02/21 10:26:43;;;;;;;23.60;4.13;;;;;;;16.02;34.36;98968.03;5091857;28;20024;-47
2022/02/21 10:29:10;;;;;;;21.42;4.40;;;;;;;16.12;35.21;98963.81;5093130;28;20020;-49
2022/02/21 10:31:36;;;;;;;21.80;3.92;;;;;;;17.45;33.21;98959.66;5092898;28;20020;-49
2022/02/21 10:34:08;;;;;;;19.70;4.07;;;;;;;17.69;32.43;98958.47;5091739;28;20141;-48
2022/02/21 10:36:38;;;;;;;18.52;4.38;;;;;;;18.47;32.59;98950.66;5093074;28;20406;-49
2022/02/21 10:39:06;;;;;;;31.73;5.18;;;;;;;19.21;31.38;98954.75;5093059;28;20436;-49
2022/02/21 10:41:43;;;;;;;24.45;5.13;;;;;;;19.75;31.52;98941.44;5091572;28;20123;-49
2022/02/21 10:44:33;;;;;;;21.55;4.50;;;;;;;20.32;31.23;98947.16;5093034;28;20030;-48
2022/02/21 10:47:01;;;;;;;23.48;4.22;;;;;;;20.52;30.23;98939.28;5091615;28;20027;-50
2022/02/21 10:49:27;;;;;;;16.85;3.55;;;;;;;21.23;29.99;98937.97;5091529;28;20027;-49
2022/02/21 10:51:57;;;;;;;16.80;4.28;;;;;;;22.24;28.09;98937.50;5092704;28;20023;-49
2022/02/21 10:54:32;;;;;;;18.45;4.68;;;;;;;22.46;27.31;98932.63;5092977;28;20115;-49
2022/02/21 10:56:58;;;;;;;17.65;4.57;;;;;;;22.29;27.34;98937.47;5092552;28;20020;-49
2022/02/21 10:59:28;;;;;;;19.17;4.18;;;;;;;22.10;27.32;98939.91;5091325;28;20416;-49
2022/02/21 11:01:55;;;;;;;20.33;4.10;;;;;;;21.43;27.72;98944.41;5092551;28;20027;-49
2022/02/21 11:04:24;;;;;;;23.95;4.53;;;;;;;19.87;29.44;98946.59;5092596;28;20024;-50
2022/02/21 11:06:51;;;;;;;21.30;4.13;;;;;;;18.72;30.26;98952.84;5092732;28;20019;-49
2022/02/21 11:09:19;;;;;;;14.75;4.30;;;;;;;17.74;31.87;98965.72;5092463;28;20032;-49
2022/02/21 11:11:50;;;;;;;28.20;6.35;;;;;;;16.97;33.11;98957.16;5092405;28;20028;-48
2022/02/21 11:14:19;;;;;;;19.08;4.30;;;;;;;16.46;33.96;98963.22;5092330;28;20371;-50
2022/02/21 11:16:48;;;;;;;16.60;3.28;;;;;;;16.03;37.49;98967.03;5090958;28;20024;-49
2022/02/21 11:19:17;;;;;;;24.75;5.32;;;;;;;15.64;40.50;98970.03;5092251;28;20465;-49
2022/02/21 11:21:44;;;;;;;22.40;4.10;;;;;;;15.15;41.62;98970.09;5092072;28;20021;-48
2022/02/21 11:24:13;;;;;;;27.08;5.97;;;;;;;14.67;43.38;98984.06;5090996;28;20035;-49
2022/02/21 11:27:28;;;;;;;32.25;4.75;;;;;;;13.62;46.24;98974.13;5092053;28;20074;-48
2022/02/21 11:30:29;;;;;;;23.95;4.75;;;;;;;12.61;50.05;98983.44;5087083;28;20035;-49